createdAt,value
2022-11-19T00:00:23.000Z,2.5
2022-11-19T00:00:58.000Z,2.6111111111111125
2022-11-19T00:01:28.000Z,2.6111111111111125
2022-11-19T00:01:58.000Z,2.6111111111111125
2022-11-19T00:02:23.000Z,2.6111111111111125
2022-11-19T00:02:49.000Z,2.6111111111111125
2022-11-19T00:03:23.000Z,2.6111111111111125
2022-11-19T00:04:03.000Z,2.6111111111111125
2022-11-19T00:04:23.000Z,2.5
2022-11-19T00:04:58.000Z,2.5
2022-11-19T00:05:28.000Z,2.5
2022-11-19T00:05:59.000Z,2.5
2022-11-19T00:06:33.000Z,2.5
2022-11-19T00:06:55.000Z,2.5
2022-11-19T00:07:18.000Z,2.5
2022-11-19T00:07:38.000Z,2.5
2022-11-19T00:08:06.000Z,2.5
2022-11-19T00:08:24.000Z,2.5
2022-11-19T00:08:58.000Z,2.5
2022-11-19T00:09:28.000Z,2.5
2022-11-19T00:09:58.000Z,2.5
2022-11-19T00:10:33.000Z,2.5
2022-11-19T00:10:56.000Z,2.5
2022-11-19T00:11:23.000Z,2.5
2022-11-19T00:11:53.000Z,2.5
2022-11-19T00:12:23.000Z,2.5
2022-11-19T00:12:58.000Z,2.5
2022-11-19T00:13:28.000Z,2.5
2022-11-19T00:13:58.000Z,2.5
2022-11-19T00:14:33.000Z,2.5
2022-11-19T00:14:55.000Z,2.5
2022-11-19T00:15:18.000Z,2.5
2022-11-19T00:15:38.000Z,2.5
2022-11-19T00:15:53.000Z,2.5
2022-11-19T00:16:23.000Z,2.5
2022-11-19T00:16:58.000Z,2.5
2022-11-19T00:17:28.000Z,2.5
2022-11-19T00:17:58.000Z,2.5
2022-11-19T00:18:23.000Z,2.5
2022-11-19T00:18:49.000Z,2.5
2022-11-19T00:19:23.000Z,2.5
2022-11-19T00:20:03.000Z,2.5
2022-11-19T00:20:25.000Z,2.5
2022-11-19T00:20:53.000Z,2.5
2022-11-19T00:21:09.000Z,2.5
2022-11-19T00:21:28.000Z,2.5
2022-11-19T00:21:58.000Z,2.5
2022-11-19T00:22:33.000Z,2.5
2022-11-19T00:22:55.000Z,2.5
2022-11-19T00:23:18.000Z,2.5
2022-11-19T00:23:53.000Z,2.5
2022-11-19T00:24:23.000Z,2.5
2022-11-19T00:24:58.000Z,2.5
2022-11-19T00:25:28.000Z,2.5
2022-11-19T00:25:58.000Z,2.5
2022-11-19T00:26:33.000Z,2.5
2022-11-19T00:26:55.000Z,2.5
2022-11-19T00:27:18.000Z,2.5
2022-11-19T00:27:49.000Z,2.5
2022-11-19T00:28:05.000Z,2.5
2022-11-19T00:28:23.000Z,2.5
2022-11-19T00:28:58.000Z,2.5
2022-11-19T00:29:28.000Z,2.3888888888888875
2022-11-19T00:29:58.000Z,2.3888888888888875
2022-11-19T00:30:33.000Z,2.3888888888888875
2022-11-19T00:30:55.000Z,2.3888888888888875
2022-11-19T00:31:18.000Z,2.3888888888888875
2022-11-19T00:31:53.000Z,2.3888888888888875
2022-11-19T00:32:23.000Z,2.3888888888888875
2022-11-19T00:32:58.000Z,2.3888888888888875
2022-11-19T00:33:28.000Z,2.5
2022-11-19T00:33:58.000Z,2.5
2022-11-19T00:34:43.000Z,2.5
2022-11-19T00:35:13.000Z,2.3888888888888875
2022-11-19T00:35:40.000Z,2.3888888888888875
2022-11-19T00:36:03.000Z,2.3888888888888875
2022-11-19T00:36:26.000Z,2.3888888888888875
2022-11-19T00:36:59.000Z,2.3888888888888875
2022-11-19T00:37:29.000Z,2.3888888888888875
2022-11-19T00:37:58.000Z,2.3888888888888875
2022-11-19T00:38:33.000Z,2.3888888888888875
2022-11-19T00:38:55.000Z,2.3888888888888875
2022-11-19T00:39:18.000Z,2.3888888888888875
2022-11-19T00:39:53.000Z,2.3888888888888875
2022-11-19T00:40:23.000Z,2.3888888888888875
2022-11-19T00:40:58.000Z,2.3888888888888875
2022-11-19T00:41:28.000Z,2.3888888888888875
2022-11-19T00:41:58.000Z,2.3888888888888875
2022-11-19T00:42:33.000Z,2.2777777777777786
2022-11-19T00:43:04.000Z,2.2777777777777786
2022-11-19T00:43:38.000Z,2.2777777777777786
2022-11-19T00:43:55.000Z,2.2777777777777786
2022-11-19T00:44:23.000Z,2.2777777777777786
2022-11-19T00:44:58.000Z,2.2777777777777786
2022-11-19T00:45:28.000Z,2.2777777777777786
2022-11-19T00:45:58.000Z,2.2777777777777786
2022-11-19T00:46:33.000Z,2.2777777777777786
2022-11-19T00:46:55.000Z,2.2777777777777786
2022-11-19T00:47:18.000Z,2.2777777777777786
2022-11-19T00:47:53.000Z,2.2777777777777786
2022-11-19T00:48:23.000Z,2.2222222222222223
2022-11-19T00:48:58.000Z,2.2222222222222223
2022-11-19T00:49:28.000Z,2.2222222222222223
2022-11-19T00:49:58.000Z,2.2222222222222223
2022-11-19T00:50:33.000Z,2.2222222222222223
2022-11-19T00:50:56.000Z,2.2222222222222223
2022-11-19T00:51:23.000Z,2.2222222222222223
2022-11-19T00:52:03.000Z,2.2222222222222223
2022-11-19T00:52:23.000Z,2.2777777777777786
2022-11-19T00:53:01.000Z,2.2777777777777786
2022-11-19T00:53:28.000Z,2.2777777777777786
2022-11-19T00:53:58.000Z,2.2777777777777786
2022-11-19T00:54:13.000Z,2.2777777777777786
2022-11-19T00:54:33.000Z,2.2777777777777786
2022-11-19T00:54:55.000Z,2.2777777777777786
2022-11-19T00:55:18.000Z,2.2222222222222223
2022-11-19T00:55:53.000Z,2.2222222222222223
2022-11-19T00:56:23.000Z,2.2222222222222223
2022-11-19T00:56:58.000Z,2.2777777777777786
2022-11-19T00:57:28.000Z,2.2222222222222223
2022-11-19T00:57:58.000Z,2.2222222222222223
2022-11-19T00:58:33.000Z,2.2222222222222223
2022-11-19T00:58:58.000Z,2.2222222222222223
2022-11-19T00:59:21.000Z,2.2222222222222223
2022-11-19T00:59:49.000Z,2.2222222222222223
2022-11-19T01:00:14.000Z,2.2222222222222223
2022-11-19T01:00:40.000Z,2.2222222222222223
2022-11-19T01:01:08.000Z,2.2222222222222223
2022-11-19T01:01:31.000Z,2.2222222222222223
2022-11-19T01:01:58.000Z,2.2222222222222223
2022-11-19T01:02:13.000Z,2.1111111111111094
2022-11-19T01:02:33.000Z,2.1111111111111094
2022-11-19T01:02:55.000Z,2.1111111111111094
2022-11-19T01:03:18.000Z,2.1111111111111094
2022-11-19T01:03:38.000Z,2.1111111111111094
2022-11-19T01:03:59.000Z,2.1111111111111094
2022-11-19T01:04:23.000Z,2.1111111111111094
2022-11-19T01:04:58.000Z,2.1111111111111094
2022-11-19T01:05:28.000Z,2.1111111111111094
2022-11-19T01:05:58.000Z,2.1111111111111094
2022-11-19T01:06:34.000Z,2.1111111111111094
2022-11-19T01:06:55.000Z,2.1111111111111094
2022-11-19T01:07:18.000Z,2.1111111111111094
2022-11-19T01:07:53.000Z,2.000000000000001
2022-11-19T01:08:23.000Z,2.000000000000001
2022-11-19T01:08:58.000Z,2.000000000000001
2022-11-19T01:09:28.000Z,2.000000000000001
2022-11-19T01:09:58.000Z,2.000000000000001
2022-11-19T01:10:33.000Z,2.000000000000001
2022-11-19T01:10:55.000Z,2.000000000000001
2022-11-19T01:11:18.000Z,2.000000000000001
2022-11-19T01:11:53.000Z,2.000000000000001
2022-11-19T01:12:23.000Z,2.000000000000001
2022-11-19T01:12:58.000Z,2.000000000000001
2022-11-19T01:13:28.000Z,2.000000000000001
2022-11-19T01:13:59.000Z,2.000000000000001
2022-11-19T01:14:33.000Z,2.000000000000001
2022-11-19T01:14:58.000Z,2.000000000000001
2022-11-19T01:15:18.000Z,2.000000000000001
2022-11-19T01:15:53.000Z,2.000000000000001
2022-11-19T01:16:23.000Z,2.000000000000001
2022-11-19T01:16:58.000Z,2.000000000000001
2022-11-19T01:17:28.000Z,2.000000000000001
2022-11-19T01:17:58.000Z,2.000000000000001
2022-11-19T01:18:34.000Z,2.000000000000001
2022-11-19T01:18:55.000Z,1.8888888888888882
2022-11-19T01:19:18.000Z,1.8888888888888882
2022-11-19T01:19:53.000Z,1.8888888888888882
2022-11-19T01:20:23.000Z,1.8888888888888882
2022-11-19T01:20:58.000Z,1.8888888888888882
2022-11-19T01:21:30.000Z,1.8888888888888882
2022-11-19T01:21:58.000Z,1.8888888888888882
2022-11-19T01:22:33.000Z,1.7777777777777795
2022-11-19T01:22:56.000Z,1.7777777777777795
2022-11-19T01:23:23.000Z,1.7777777777777795
2022-11-19T01:24:03.000Z,1.7777777777777795
2022-11-19T01:24:26.000Z,1.7777777777777795
2022-11-19T01:24:53.000Z,1.7777777777777795
2022-11-19T01:25:09.000Z,1.7777777777777795
2022-11-19T01:25:28.000Z,1.7777777777777795
2022-11-19T01:25:53.000Z,1.7777777777777795
2022-11-19T01:26:19.000Z,1.7777777777777795
2022-11-19T01:26:45.000Z,1.7777777777777795
2022-11-19T01:27:13.000Z,1.7777777777777795
2022-11-19T01:27:40.000Z,1.7777777777777795
2022-11-19T01:28:03.000Z,1.7777777777777795
2022-11-19T01:28:26.000Z,1.7777777777777795
2022-11-19T01:28:53.000Z,1.7777777777777795
2022-11-19T01:29:09.000Z,1.7777777777777795
2022-11-19T01:29:28.000Z,1.7777777777777795
2022-11-19T01:29:58.000Z,1.7777777777777795
2022-11-19T01:30:34.000Z,1.7777777777777795
2022-11-19T01:30:55.000Z,1.7777777777777795
2022-11-19T01:31:18.000Z,1.7777777777777795
2022-11-19T01:31:38.000Z,1.7777777777777795
2022-11-19T01:32:06.000Z,1.7777777777777795
2022-11-19T01:32:38.000Z,1.7777777777777795
2022-11-19T01:33:13.000Z,1.7777777777777795
2022-11-19T01:33:43.000Z,1.7777777777777795
2022-11-19T01:33:58.000Z,1.7777777777777795
2022-11-19T01:34:33.000Z,1.7777777777777795
2022-11-19T01:34:55.000Z,1.7777777777777795
2022-11-19T01:35:18.000Z,1.7777777777777795
2022-11-19T01:35:38.000Z,1.7777777777777795
2022-11-19T01:35:53.000Z,1.7777777777777795
2022-11-19T01:36:23.000Z,1.7777777777777795
2022-11-19T01:36:58.000Z,1.7777777777777795
2022-11-19T01:37:28.000Z,1.722222222222223
2022-11-19T01:37:58.000Z,1.722222222222223
2022-11-19T01:38:33.000Z,1.722222222222223
2022-11-19T01:38:55.000Z,1.722222222222223
2022-11-19T01:39:18.000Z,1.722222222222223
2022-11-19T01:39:53.000Z,1.722222222222223
2022-11-19T01:40:23.000Z,1.722222222222223
2022-11-19T01:40:58.000Z,1.722222222222223
2022-11-19T01:41:28.000Z,1.722222222222223
2022-11-19T01:41:58.000Z,1.722222222222223
2022-11-19T01:42:43.000Z,1.722222222222223
2022-11-19T01:43:03.000Z,1.722222222222223
2022-11-19T01:43:38.000Z,1.722222222222223
2022-11-19T01:44:06.000Z,1.722222222222223
2022-11-19T01:44:38.000Z,1.722222222222223
2022-11-19T01:45:13.000Z,1.722222222222223
2022-11-19T01:45:43.000Z,1.722222222222223
2022-11-19T01:46:13.000Z,1.722222222222223
2022-11-19T01:46:34.000Z,1.722222222222223
2022-11-19T01:46:55.000Z,1.722222222222223
2022-11-19T01:47:18.000Z,1.722222222222223
2022-11-19T01:47:53.000Z,1.722222222222223
2022-11-19T01:48:23.000Z,1.722222222222223
2022-11-19T01:48:58.000Z,1.722222222222223
2022-11-19T01:49:38.000Z,1.722222222222223
2022-11-19T01:50:08.000Z,1.722222222222223
2022-11-19T01:50:33.000Z,1.722222222222223
2022-11-19T01:50:58.000Z,1.722222222222223
2022-11-19T01:51:21.000Z,1.722222222222223
2022-11-19T01:51:49.000Z,1.722222222222223
2022-11-19T01:52:14.000Z,1.722222222222223
2022-11-19T01:52:39.000Z,1.722222222222223
2022-11-19T01:53:08.000Z,1.722222222222223
2022-11-19T01:53:31.000Z,1.6111111111111103
2022-11-19T01:53:58.000Z,1.6111111111111103
2022-11-19T01:54:33.000Z,1.6111111111111103
2022-11-19T01:54:56.000Z,1.6111111111111103
2022-11-19T01:55:18.000Z,1.6111111111111103
2022-11-19T01:55:53.000Z,1.6111111111111103
2022-11-19T01:56:23.000Z,1.5000000000000016
2022-11-19T01:56:58.000Z,1.5000000000000016
2022-11-19T01:57:28.000Z,1.5000000000000016
2022-11-19T01:57:58.000Z,1.5000000000000016
2022-11-19T01:58:34.000Z,1.5000000000000016
2022-11-19T01:58:55.000Z,1.5000000000000016
2022-11-19T01:59:18.000Z,1.5000000000000016
2022-11-19T01:59:53.000Z,1.5000000000000016
2022-11-19T02:00:23.000Z,1.5000000000000016
2022-11-19T02:00:59.000Z,1.5000000000000016
2022-11-19T02:01:30.000Z,1.5000000000000016
2022-11-19T02:01:53.000Z,1.5000000000000016
2022-11-19T02:02:18.000Z,1.5000000000000016
2022-11-19T02:02:45.000Z,1.5000000000000016
2022-11-19T02:03:03.000Z,1.5000000000000016
2022-11-19T02:03:38.000Z,1.5000000000000016
2022-11-19T02:04:08.000Z,1.5000000000000016
2022-11-19T02:04:38.000Z,1.3888888888888888
2022-11-19T02:05:13.000Z,1.3888888888888888
2022-11-19T02:05:43.000Z,1.3888888888888888
2022-11-19T02:06:29.000Z,1.3888888888888888
2022-11-19T02:06:48.000Z,1.3888888888888888
2022-11-19T02:07:18.000Z,1.3888888888888888
2022-11-19T02:07:53.000Z,1.3888888888888888
2022-11-19T02:08:24.000Z,1.3888888888888888
2022-11-19T02:08:58.000Z,1.3888888888888888
2022-11-19T02:09:28.000Z,1.3888888888888888
2022-11-19T02:09:58.000Z,1.3888888888888888
2022-11-19T02:10:33.000Z,1.3888888888888888
2022-11-19T02:10:55.000Z,1.3888888888888888
2022-11-19T02:11:18.000Z,1.2777777777777761
2022-11-19T02:11:53.000Z,1.2777777777777761
2022-11-19T02:12:23.000Z,1.2777777777777761
2022-11-19T02:12:58.000Z,1.2777777777777761
2022-11-19T02:13:28.000Z,1.2777777777777761
2022-11-19T02:13:58.000Z,1.2777777777777761
2022-11-19T02:14:33.000Z,1.2777777777777761
2022-11-19T02:14:55.000Z,1.2777777777777761
2022-11-19T02:15:18.000Z,1.2777777777777761
2022-11-19T02:15:53.000Z,1.2777777777777761
2022-11-19T02:16:21.000Z,1.2777777777777761
2022-11-19T02:16:38.000Z,1.2777777777777761
2022-11-19T02:17:13.000Z,1.2777777777777761
2022-11-19T02:17:43.000Z,1.2777777777777761
2022-11-19T02:17:59.000Z,1.2777777777777761
2022-11-19T02:18:33.000Z,1.2777777777777761
2022-11-19T02:18:55.000Z,1.2777777777777761
2022-11-19T02:19:18.000Z,1.2777777777777761
2022-11-19T02:19:38.000Z,1.2777777777777761
2022-11-19T02:20:08.000Z,1.2777777777777761
2022-11-19T02:20:38.000Z,1.2777777777777761
2022-11-19T02:21:12.000Z,1.2777777777777761
2022-11-19T02:21:43.000Z,1.2777777777777761
2022-11-19T02:22:13.000Z,1.2777777777777761
2022-11-19T02:22:33.000Z,1.2777777777777761
2022-11-19T02:22:55.000Z,1.2777777777777761
2022-11-19T02:23:18.000Z,1.2777777777777761
2022-11-19T02:23:53.000Z,1.2777777777777761
2022-11-19T02:24:23.000Z,1.2777777777777761
2022-11-19T02:24:58.000Z,1.2777777777777761
2022-11-19T02:25:28.000Z,1.2777777777777761
2022-11-19T02:25:58.000Z,1.2777777777777761
2022-11-19T02:26:33.000Z,1.2777777777777761
2022-11-19T02:26:55.000Z,1.2777777777777761
2022-11-19T02:27:18.000Z,1.2777777777777761
2022-11-19T02:27:53.000Z,1.3888888888888888
2022-11-19T02:28:23.000Z,1.3888888888888888
2022-11-19T02:28:58.000Z,1.3888888888888888
2022-11-19T02:29:38.000Z,1.3888888888888888
2022-11-19T02:30:08.000Z,1.2777777777777761
2022-11-19T02:30:33.000Z,1.2777777777777761
2022-11-19T02:30:55.000Z,1.2777777777777761
2022-11-19T02:31:18.000Z,1.2777777777777761
2022-11-19T02:31:42.000Z,1.2777777777777761
2022-11-19T02:32:07.000Z,1.2777777777777761
2022-11-19T02:32:38.000Z,1.2777777777777761
2022-11-19T02:32:58.000Z,1.2777777777777761
2022-11-19T02:33:28.000Z,1.2777777777777761
2022-11-19T02:33:58.000Z,1.2777777777777761
2022-11-19T02:34:33.000Z,1.2777777777777761
2022-11-19T02:34:55.000Z,1.2777777777777761
2022-11-19T02:35:18.000Z,1.2777777777777761
2022-11-19T02:35:38.000Z,1.2777777777777761
2022-11-19T02:36:00.000Z,1.2777777777777761
2022-11-19T02:36:23.000Z,1.2777777777777761
2022-11-19T02:37:08.000Z,1.2777777777777761
2022-11-19T02:37:31.000Z,1.2777777777777761
2022-11-19T02:37:58.000Z,1.2777777777777761
2022-11-19T02:38:23.000Z,1.2777777777777761
2022-11-19T02:38:50.000Z,1.2777777777777761
2022-11-19T02:39:18.000Z,1.2777777777777761
2022-11-19T02:39:38.000Z,1.2777777777777761
2022-11-19T02:40:06.000Z,1.2777777777777761
2022-11-19T02:40:23.000Z,1.3888888888888888
2022-11-19T02:40:58.000Z,1.3888888888888888
2022-11-19T02:41:28.000Z,1.3888888888888888
2022-11-19T02:41:58.000Z,1.3888888888888888
2022-11-19T02:42:13.000Z,1.3888888888888888
2022-11-19T02:42:33.000Z,1.3888888888888888
2022-11-19T02:42:55.000Z,1.3888888888888888
2022-11-19T02:43:18.000Z,1.3888888888888888
2022-11-19T02:43:38.000Z,1.3888888888888888
2022-11-19T02:44:08.000Z,1.2777777777777761
2022-11-19T02:44:38.000Z,1.2777777777777761
2022-11-19T02:44:58.000Z,1.2777777777777761
2022-11-19T02:45:28.000Z,1.2777777777777761
2022-11-19T02:46:08.000Z,1.3888888888888888
2022-11-19T02:46:34.000Z,1.3888888888888888
2022-11-19T02:46:55.000Z,1.3888888888888888
2022-11-19T02:47:18.000Z,1.3888888888888888
2022-11-19T02:47:53.000Z,1.3888888888888888
2022-11-19T02:48:23.000Z,1.3888888888888888
2022-11-19T02:48:58.000Z,1.3888888888888888
2022-11-19T02:49:28.000Z,1.3888888888888888
2022-11-19T02:49:58.000Z,1.3888888888888888
2022-11-19T02:50:33.000Z,1.3888888888888888
2022-11-19T02:50:55.000Z,1.2777777777777761
2022-11-19T02:51:18.000Z,1.2777777777777761
2022-11-19T02:51:53.000Z,1.2777777777777761
2022-11-19T02:52:23.000Z,1.2777777777777761
2022-11-19T02:52:58.000Z,1.2777777777777761
2022-11-19T02:53:28.000Z,1.2777777777777761
2022-11-19T02:53:58.000Z,1.2777777777777761
2022-11-19T02:54:33.000Z,1.2777777777777761
2022-11-19T02:54:55.000Z,1.2777777777777761
2022-11-19T02:55:18.000Z,1.2777777777777761
2022-11-19T02:55:53.000Z,1.2777777777777761
2022-11-19T02:56:23.000Z,1.2777777777777761
2022-11-19T02:56:58.000Z,1.2777777777777761
2022-11-19T02:57:28.000Z,1.3888888888888888
2022-11-19T02:57:58.000Z,1.3888888888888888
2022-11-19T02:58:33.000Z,1.3888888888888888
2022-11-19T02:59:04.000Z,1.3888888888888888
2022-11-19T02:59:38.000Z,1.3888888888888888
2022-11-19T03:00:08.000Z,1.3888888888888888
2022-11-19T03:00:38.000Z,1.3888888888888888
2022-11-19T03:01:13.000Z,1.3888888888888888
2022-11-19T03:01:43.000Z,1.3888888888888888
2022-11-19T03:02:13.000Z,1.3888888888888888
2022-11-19T03:02:33.000Z,1.3888888888888888
2022-11-19T03:02:55.000Z,1.3888888888888888
2022-11-19T03:03:18.000Z,1.3888888888888888
2022-11-19T03:03:53.000Z,1.3888888888888888
2022-11-19T03:04:23.000Z,1.3888888888888888
2022-11-19T03:04:58.000Z,1.3888888888888888
2022-11-19T03:05:28.000Z,1.3888888888888888
2022-11-19T03:05:58.000Z,1.3888888888888888
2022-11-19T03:06:33.000Z,1.3888888888888888
2022-11-19T03:06:55.000Z,1.3888888888888888
2022-11-19T03:07:18.000Z,1.3888888888888888
2022-11-19T03:07:53.000Z,1.3888888888888888
2022-11-19T03:08:23.000Z,1.3888888888888888
2022-11-19T03:08:59.000Z,1.3888888888888888
2022-11-19T03:09:28.000Z,1.3888888888888888
2022-11-19T03:09:58.000Z,1.3888888888888888
2022-11-19T03:10:33.000Z,1.3888888888888888
2022-11-19T03:10:55.000Z,1.3888888888888888
2022-11-19T03:11:19.000Z,1.3888888888888888
2022-11-19T03:11:53.000Z,1.3888888888888888
2022-11-19T03:12:23.000Z,1.3888888888888888
2022-11-19T03:12:58.000Z,1.3888888888888888
2022-11-19T03:13:28.000Z,1.3888888888888888
2022-11-19T03:13:58.000Z,1.3888888888888888
2022-11-19T03:14:33.000Z,1.3888888888888888
2022-11-19T03:14:55.000Z,1.3888888888888888
2022-11-19T03:15:18.000Z,1.2777777777777761
2022-11-19T03:15:53.000Z,1.2777777777777761
2022-11-19T03:16:23.000Z,1.2777777777777761
2022-11-19T03:16:58.000Z,1.2777777777777761
2022-11-19T03:17:28.000Z,1.2777777777777761
2022-11-19T03:17:58.000Z,1.2777777777777761
2022-11-19T03:18:33.000Z,1.2777777777777761
2022-11-19T03:18:55.000Z,1.2777777777777761
2022-11-19T03:19:18.000Z,1.2777777777777761
2022-11-19T03:19:53.000Z,1.2777777777777761
2022-11-19T03:20:23.000Z,1.2777777777777761
2022-11-19T03:20:58.000Z,1.2777777777777761
2022-11-19T03:21:28.000Z,1.2777777777777761
2022-11-19T03:21:58.000Z,1.2777777777777761
2022-11-19T03:22:33.000Z,1.2777777777777761
2022-11-19T03:22:55.000Z,1.2777777777777761
2022-11-19T03:23:18.000Z,1.2777777777777761
2022-11-19T03:23:53.000Z,1.2777777777777761
2022-11-19T03:24:23.000Z,1.2777777777777761
2022-11-19T03:24:58.000Z,1.2777777777777761
2022-11-19T03:25:28.000Z,1.2777777777777761
2022-11-19T03:25:53.000Z,1.2777777777777761
2022-11-19T03:26:19.000Z,1.2777777777777761
2022-11-19T03:26:45.000Z,1.2777777777777761
2022-11-19T03:27:13.000Z,1.2777777777777761
2022-11-19T03:27:39.000Z,1.2777777777777761
2022-11-19T03:28:03.000Z,1.2777777777777761
2022-11-19T03:28:26.000Z,1.2777777777777761
2022-11-19T03:28:58.000Z,1.2777777777777761
2022-11-19T03:29:28.000Z,1.2777777777777761
2022-11-19T03:29:58.000Z,1.2777777777777761
2022-11-19T03:30:33.000Z,1.2777777777777761
2022-11-19T03:30:55.000Z,1.2777777777777761
2022-11-19T03:31:18.000Z,1.2777777777777761
2022-11-19T03:31:53.000Z,1.2777777777777761
2022-11-19T03:32:23.000Z,1.2777777777777761
2022-11-19T03:32:58.000Z,1.2777777777777761
2022-11-19T03:33:28.000Z,1.2777777777777761
2022-11-19T03:33:58.000Z,1.2777777777777761
2022-11-19T03:34:33.000Z,1.2222222222222239
2022-11-19T03:34:55.000Z,1.2222222222222239
2022-11-19T03:35:23.000Z,1.2222222222222239
2022-11-19T03:35:53.000Z,1.2222222222222239
2022-11-19T03:36:23.000Z,1.2222222222222239
2022-11-19T03:36:58.000Z,1.2222222222222239
2022-11-19T03:37:28.000Z,1.2222222222222239
2022-11-19T03:37:58.000Z,1.2222222222222239
2022-11-19T03:38:33.000Z,1.2222222222222239
2022-11-19T03:38:55.000Z,1.2222222222222239
2022-11-19T03:39:19.000Z,1.2222222222222239
2022-11-19T03:39:53.000Z,1.2222222222222239
2022-11-19T03:40:23.000Z,1.2222222222222239
2022-11-19T03:40:58.000Z,1.2222222222222239
2022-11-19T03:41:28.000Z,1.2222222222222239
2022-11-19T03:41:58.000Z,1.2222222222222239
2022-11-19T03:42:33.000Z,1.2222222222222239
2022-11-19T03:42:56.000Z,1.2222222222222239
2022-11-19T03:43:23.000Z,1.2222222222222239
2022-11-19T03:44:03.000Z,1.2222222222222239
2022-11-19T03:44:26.000Z,1.2222222222222239
2022-11-19T03:44:53.000Z,1.2222222222222239
2022-11-19T03:45:09.000Z,1.2222222222222239
2022-11-19T03:45:28.000Z,1.2222222222222239
2022-11-19T03:45:53.000Z,1.2222222222222239
2022-11-19T03:46:19.000Z,1.2222222222222239
2022-11-19T03:46:45.000Z,1.2222222222222239
2022-11-19T03:47:13.000Z,1.2222222222222239
2022-11-19T03:47:38.000Z,1.2222222222222239
2022-11-19T03:48:08.000Z,1.2222222222222239
2022-11-19T03:48:38.000Z,1.2222222222222239
2022-11-19T03:49:13.000Z,1.2222222222222239
2022-11-19T03:49:43.000Z,1.2222222222222239
2022-11-19T03:50:13.000Z,1.2222222222222239
2022-11-19T03:50:33.000Z,1.2222222222222239
2022-11-19T03:50:55.000Z,1.2222222222222239
2022-11-19T03:51:18.000Z,1.2222222222222239
2022-11-19T03:51:53.000Z,1.2222222222222239
2022-11-19T03:52:23.000Z,1.2222222222222239
2022-11-19T03:52:58.000Z,1.2222222222222239
2022-11-19T03:53:28.000Z,1.2222222222222239
2022-11-19T03:53:59.000Z,1.2222222222222239
2022-11-19T03:54:33.000Z,1.1111111111111112
2022-11-19T03:54:55.000Z,1.1111111111111112
2022-11-19T03:55:18.000Z,1.1111111111111112
2022-11-19T03:55:38.000Z,1.1111111111111112
2022-11-19T03:56:06.000Z,1.1111111111111112
2022-11-19T03:56:23.000Z,1.1111111111111112
2022-11-19T03:56:58.000Z,1.1111111111111112
2022-11-19T03:57:28.000Z,1.1111111111111112
2022-11-19T03:57:58.000Z,1.1111111111111112
2022-11-19T03:58:33.000Z,1.1111111111111112
2022-11-19T03:58:55.000Z,1.1111111111111112
2022-11-19T03:59:18.000Z,1.1111111111111112
2022-11-19T03:59:38.000Z,1.1111111111111112
2022-11-19T04:00:06.000Z,1.1111111111111112
2022-11-19T04:00:48.000Z,1.1111111111111112
2022-11-19T04:01:22.000Z,1.1111111111111112
2022-11-19T04:01:45.000Z,1.1111111111111112
2022-11-19T04:02:14.000Z,1.1111111111111112
2022-11-19T04:02:33.000Z,1.1111111111111112
2022-11-19T04:02:55.000Z,1.1111111111111112
2022-11-19T04:03:18.000Z,1.2222222222222239
2022-11-19T04:03:38.000Z,1.2222222222222239
2022-11-19T04:04:00.000Z,1.2222222222222239
2022-11-19T04:04:24.000Z,1.2222222222222239
2022-11-19T04:04:58.000Z,1.2222222222222239
2022-11-19T04:05:28.000Z,1.2222222222222239
2022-11-19T04:05:58.000Z,1.2222222222222239
2022-11-19T04:06:13.000Z,1.2222222222222239
2022-11-19T04:06:33.000Z,1.2222222222222239
2022-11-19T04:06:55.000Z,1.2222222222222239
2022-11-19T04:07:18.000Z,1.2222222222222239
2022-11-19T04:07:38.000Z,1.2222222222222239
2022-11-19T04:07:53.000Z,1.2222222222222239
2022-11-19T04:08:33.000Z,1.2222222222222239
2022-11-19T04:08:59.000Z,1.2222222222222239
2022-11-19T04:09:28.000Z,1.2222222222222239
2022-11-19T04:09:58.000Z,1.2222222222222239
2022-11-19T04:10:13.000Z,1.2222222222222239
2022-11-19T04:10:33.000Z,1.2222222222222239
2022-11-19T04:10:55.000Z,1.2222222222222239
2022-11-19T04:11:18.000Z,1.2222222222222239
2022-11-19T04:11:38.000Z,1.2222222222222239
2022-11-19T04:12:06.000Z,1.2222222222222239
2022-11-19T04:12:23.000Z,1.2222222222222239
2022-11-19T04:12:58.000Z,1.2222222222222239
2022-11-19T04:13:28.000Z,1.2222222222222239
2022-11-19T04:13:58.000Z,1.2222222222222239
2022-11-19T04:14:13.000Z,1.2222222222222239
2022-11-19T04:14:33.000Z,1.2222222222222239
2022-11-19T04:14:55.000Z,1.1111111111111112
2022-11-19T04:15:18.000Z,1.1111111111111112
2022-11-19T04:15:38.000Z,1.1111111111111112
2022-11-19T04:16:03.000Z,1.2222222222222239
2022-11-19T04:16:21.000Z,1.2222222222222239
2022-11-19T04:16:38.000Z,1.2222222222222239
2022-11-19T04:16:58.000Z,1.2222222222222239
2022-11-19T04:17:28.000Z,1.2222222222222239
2022-11-19T04:17:58.000Z,1.2222222222222239
2022-11-19T04:18:13.000Z,1.2222222222222239
2022-11-19T04:18:33.000Z,1.2222222222222239
2022-11-19T04:18:55.000Z,1.2222222222222239
2022-11-19T04:19:18.000Z,1.2222222222222239
2022-11-19T04:19:38.000Z,1.2222222222222239
2022-11-19T04:20:08.000Z,1.2222222222222239
2022-11-19T04:20:38.000Z,1.2222222222222239
2022-11-19T04:20:58.000Z,1.2222222222222239
2022-11-19T04:21:28.000Z,1.2222222222222239
2022-11-19T04:21:59.000Z,1.2222222222222239
2022-11-19T04:22:43.000Z,1.2222222222222239
2022-11-19T04:23:13.000Z,1.2222222222222239
2022-11-19T04:23:39.000Z,1.2222222222222239
2022-11-19T04:24:03.000Z,1.2222222222222239
2022-11-19T04:24:26.000Z,1.2222222222222239
2022-11-19T04:24:53.000Z,1.2222222222222239